aviador You're here:

K1S5 Decoded Metar

in
Report Time2017-08-18 10:35:00
UTC Time2017-08-18 10:50:20
Flight Rules vfr VFR
Wind010° at 04 kt
W.Rank010° ranks 7
Current wind is below 010° avg. (4.8)
Visibility9999 m
Phenomena:N/A
Clouds:N/A
Expected CloudBase > 1,200 ft AGL from Temp-Dew spread
CeilingNone
Temp10°C
Dew Point07°C (82% RH)
AAT7.9°C
QNH1016 hPa
Raw Report
METAR K1S5 181035Z AUTO 01004KT 10SM 10/07 A3000 RMK AO2 T01000070=

Extra information for K1S5:More info

Social comments